Terminal Aerodrome Forecast
Issued by NWS

Home | Current Version | Previous Version | Text Only | Print | Product List | Glossary On
Versions: 1 2 3 4 5 6 7 8 9 10 11 12 13 14 15 16 17 18 19 20 21 22 23 24 25 26 27
000
FTUS43 KDLH 250500
TAFHYR
TAF
KHYR 250521Z 2506/2606 04012KT P6SM OVC012
     FM250700 03008KT P6SM SCT009 BKN250
     FM251600 05008KT P6SM BKN020 BKN100
     FM260020 18004KT P6SM BKN020 BKN060=

USA.gov is the U.S. government's official web portal to all federal, state and local government web resources and services.